Time;durP1;ratioP1;P1;durP2;ratioP2;P2;SDS_P1;SDS_P2;PMS_P1;PMS_P2;Temp;Humidity;BMP_temperature;BMP_pressure;BME280_temperature;BME280_humidity;BME280_pressure;Samples;Min_cycle;Max_cycle;Signal;HPM_P1;HPM_P2
2022/11/13 00:02:04;;;;;;;;;29.75;28.75;;;;;10.63;82.42;101561.75;6257228;22;45808;-89
2022/11/13 00:04:29;;;;;;;;;31.25;29.50;;;;;10.18;82.52;101487.91;6283503;22;45460;-89
2022/11/13 00:06:55;;;;;;;;;35.50;31.00;;;;;9.98;81.94;101456.28;6252988;22;47051;-90
2022/11/13 00:09:20;;;;;;;;;32.75;29.00;;;;;9.15;81.75;101314.88;6252215;22;45651;-89
2022/11/13 00:11:46;;;;;;;;;36.50;31.00;;;;;10.10;82.22;101476.50;6277176;22;45320;-90
2022/11/13 00:14:11;;;;;;;;;27.00;26.00;;;;;10.39;82.00;101536.31;6276711;22;45219;-89
2022/11/13 00:16:36;;;;;;;;;30.75;28.75;;;;;10.20;82.36;101496.69;6250116;22;47010;-89
2022/11/13 00:19:02;;;;;;;;;33.50;31.25;;;;;10.27;82.19;101524.84;6253873;22;45699;-89
2022/11/13 00:21:27;;;;;;;;;29.50;28.00;;;;;11.04;81.83;101637.38;6251935;22;45239;-89
2022/11/13 00:23:54;;;;;;;;;28.50;26.75;;;;;9.97;81.92;101446.59;6277008;22;45415;-88
2022/11/13 00:26:23;;;;;;;;;32.50;28.00;;;;;9.53;82.45;101379.84;6276341;22;46426;-89
2022/11/13 00:28:54;;;;;;;;;35.50;29.00;;;;;10.62;82.48;101562.63;6280307;22;45300;-88
2022/11/13 00:31:20;;;;;;;;;30.25;27.75;;;;;10.02;82.32;101449.22;6277111;22;45226;-90
2022/11/13 00:33:46;;;;;;;;;31.50;29.00;;;;;10.22;82.05;101496.66;6277557;22;45308;-89
2022/11/13 00:36:18;;;;;;;;;29.25;26.00;;;;;10.96;82.11;101623.28;6251749;22;48201;-89
2022/11/13 00:38:44;;;;;;;;;28.75;24.00;;;;;10.94;82.67;101618.00;6276946;22;45217;-90
2022/11/13 00:41:09;;;;;;;;;30.00;27.75;;;;;9.93;82.13;101439.59;6274725;22;45489;-89
2022/11/13 00:43:35;;;;;;;;;25.25;25.25;;;;;10.55;82.17;101545.94;6247690;22;45384;-90
2022/11/13 00:46:00;;;;;;;;;27.50;26.50;;;;;10.27;82.47;101502.84;6278811;22;45418;-89
2022/11/13 00:48:25;;;;;;;;;30.50;27.00;;;;;10.04;82.35;101455.38;6279063;22;45392;-90
2022/11/13 00:50:58;;;;;;;;;31.75;27.00;;;;;10.64;82.31;101571.44;6252454;22;45361;-90
2022/11/13 00:53:24;;;;;;;;;34.00;28.25;;;;;10.44;82.33;101538.03;6249886;22;45199;-88
2022/11/13 00:55:49;;;;;;;;;30.50;27.00;;;;;10.67;82.27;101566.13;6252912;22;47957;-90
2022/11/13 00:58:15;;;;;;;;;30.25;28.25;;;;;10.85;82.43;101596.88;6279494;22;45494;-89
2022/11/13 01:00:43;;;;;;;;;27.25;23.50;;;;;10.18;82.47;101476.47;6277132;22;45349;-90
2022/11/13 01:03:09;;;;;;;;;31.00;28.00;;;;;10.16;82.19;101483.50;6253253;22;45585;-87
2022/11/13 01:05:36;;;;;;;;;32.25;30.00;;;;;9.88;82.26;101436.06;6280578;22;46224;-89
2022/11/13 01:08:02;;;;;;;;;29.50;27.00;;;;;9.93;82.16;101443.09;6280222;22;45487;-92
2022/11/13 01:10:28;;;;;;;;;26.00;26.00;;;;;9.75;82.37;101404.41;6256000;22;45371;-91
2022/11/13 01:12:53;;;;;;;;;24.50;23.75;;;;;9.36;82.44;101342.94;6258066;22;44838;-91
2022/11/13 01:15:19;;;;;;;;;28.00;26.50;;;;;9.01;82.13;101288.53;6256023;22;48256;-92
2022/11/13 01:17:44;;;;;;;;;25.75;24.00;;;;;9.33;82.03;101336.81;6254618;22;45313;-90
2022/11/13 01:20:10;;;;;;;;;28.75;27.75;;;;;9.11;82.53;101299.06;6279299;22;45301;-91
2022/11/13 01:22:35;;;;;;;;;32.00;28.25;;;;;9.35;82.52;101346.50;6280648;22;45432;-90
2022/11/13 01:25:01;;;;;;;;;30.25;27.00;;;;;9.60;82.23;101381.59;6289514;22;45326;-90
2022/11/13 01:27:26;;;;;;;;;29.75;23.50;;;;;10.24;82.47;101482.59;6286464;22;45289;-90
2022/11/13 01:29:51;;;;;;;;;27.50;26.25;;;;;9.99;82.01;101444.84;6281357;22;45595;-89
2022/11/13 01:32:17;;;;;;;;;23.25;19.25;;;;;9.88;82.00;101428.13;6281477;22;45555;-90
2022/11/13 01:34:42;;;;;;;;;27.75;26.75;;;;;9.88;82.10;101434.28;6285116;22;45388;-90
2022/11/13 01:37:07;;;;;;;;;25.00;23.25;;;;;10.22;82.09;101488.75;6277907;22;45324;-90
2022/11/13 01:39:33;;;;;;;;;31.00;25.00;;;;;10.16;82.33;101475.56;6279772;22;45511;-90
2022/11/13 01:41:59;;;;;;;;;29.50;26.50;;;;;10.32;82.61;101508.97;6255758;22;45554;-90
2022/11/13 01:44:25;;;;;;;;;30.50;29.50;;;;;9.96;82.50;101450.13;6247947;22;46850;-90
2022/11/13 01:46:55;;;;;;;;;29.00;26.75;;;;;9.91;82.34;101447.47;6277094;22;45297;-90
2022/11/13 01:49:35;;;;;;;;;30.00;25.50;;;;;10.36;82.53;101516.03;6248857;22;45356;-91
2022/11/13 01:52:05;;;;;;;;;32.50;25.75;;;;;10.32;82.46;101508.97;6247869;22;45421;-91
2022/11/13 01:54:37;;;;;;;;;28.75;27.00;;;;;9.78;82.52;101422.03;6252821;22;46892;-91
2022/11/13 01:57:04;;;;;;;;;29.50;27.25;;;;;9.28;82.38;101344.75;6285320;22;45279;-89
2022/11/13 01:59:33;;;;;;;;;31.25;28.50;;;;;9.28;82.59;101338.56;6258402;22;45243;-90
2022/11/13 02:01:59;;;;;;;;;36.25;32.00;;;;;9.28;82.09;101330.66;6282181;22;45481;-91
2022/11/13 02:04:25;;;;;;;;;35.25;30.25;;;;;9.57;82.54;101383.38;6281125;22;46510;-91
2022/11/13 02:06:56;;;;;;;;;32.00;28.25;;;;;9.35;82.42;101345.59;6255188;22;45379;-91
2022/11/13 02:09:32;;;;;;;;;33.00;29.50;;;;;10.03;82.65;101446.56;6286619;22;45427;-90
2022/11/13 02:11:58;;;;;;;;;31.50;29.75;;;;;10.40;82.45;101515.16;6275354;22;45446;-90
2022/11/13 02:14:25;;;;;;;;;33.75;29.75;;;;;8.80;82.25;101241.13;6248725;22;47089;-92
2022/11/13 02:16:55;;;;;;;;;43.25;30.50;;;;;10.36;82.53;101508.13;6248606;22;45263;-89
2022/11/13 02:19:40;;;;;;;;;32.75;30.75;;;;;9.96;82.43;101456.28;6251095;22;45302;-89
2022/11/13 02:22:27;;;;;;;;;38.25;35.75;;;;;10.36;82.62;101512.53;6242002;22;45533;-90
2022/11/13 02:24:54;;;;;;;;;44.75;36.00;;;;;10.02;82.45;101460.69;6268488;22;47635;-91
2022/11/13 02:27:37;;;;;;;;;37.25;34.75;;;;;10.19;82.50;101486.13;6245342;22;45170;-92
2022/11/13 02:30:11;;;;;;;;;39.00;35.00;;;;;10.31;82.62;101512.53;6260189;22;45240;-90
2022/11/13 02:32:42;;;;;;;;;42.75;35.00;;;;;10.01;82.62;101466.84;6287346;22;45276;-89
2022/11/13 02:35:08;;;;;;;;;42.25;35.25;;;;;9.88;82.38;101443.97;6258688;22;46002;-90
2022/11/13 02:37:33;;;;;;;;;40.75;36.00;;;;;9.70;82.25;101422.06;6254559;22;45313;-89
2022/11/13 02:39:58;;;;;;;;;35.75;32.50;;;;;10.25;82.49;101512.53;6272380;22;45206;-89
2022/11/13 02:42:23;;;;;;;;;38.75;35.50;;;;;9.35;82.74;101358.78;6247911;22;45610;-91
2022/11/13 02:44:49;;;;;;;;;43.25;36.50;;;;;9.55;82.46;101387.75;6251159;22;45253;-91
2022/11/13 02:47:15;;;;;;;;;43.50;37.25;;;;;9.90;82.58;101451.03;6245652;22;45297;-91
2022/11/13 02:49:41;;;;;;;;;39.50;35.25;;;;;9.38;82.62;101378.16;6244219;22;45412;-91
2022/11/13 02:55:39;;;;;;;;;40.75;33.00;;;;;10.16;82.85;101500.25;6246948;22;45154;-89
2022/11/13 02:58:05;;;;;;;;;39.00;35.50;;;;;10.02;82.43;101476.53;6274575;22;45470;-90
2022/11/13 03:00:30;;;;;;;;;35.00;28.50;;;;;9.33;82.22;101353.50;6250119;22;45902;-90
2022/11/13 03:02:55;;;;;;;;;34.50;31.75;;;;;9.94;83.05;101467.72;6257674;22;44852;-91
2022/11/13 03:05:22;;;;;;;;;34.50;30.50;;;;;9.75;83.17;101433.47;6250211;22;45301;-90
2022/11/13 03:07:47;;;;;;;;;31.50;28.50;;;;;9.68;82.99;101433.50;6245976;22;45440;-89
2022/11/13 03:10:13;;;;;;;;;32.75;29.00;;;;;9.03;82.79;101330.72;6245725;22;45382;-90
2022/11/13 03:12:39;;;;;;;;;20.75;18.75;;;;;8.99;82.96;101321.94;6268322;22;45389;-89
2022/11/13 03:15:06;;;;;;;;;28.50;27.00;;;;;9.69;83.48;101435.25;6242774;22;47237;-90
2022/11/13 03:17:31;;;;;;;;;29.75;25.25;;;;;10.07;82.99;101492.34;6241311;22;45642;-89
2022/11/13 03:19:57;;;;;;;;;31.00;28.25;;;;;9.30;83.33;101364.06;6244396;22;45254;-89
2022/11/13 03:22:22;;;;;;;;;26.00;24.25;;;;;9.75;83.14;101435.22;6275868;22;45120;-88
2022/11/13 03:24:48;;;;;;;;;27.75;27.75;;;;;9.42;82.91;101398.34;6280672;22;45377;-89
2022/11/13 03:27:13;;;;;;;;;26.75;21.25;;;;;9.22;82.98;101368.50;6276210;22;45325;-89
2022/11/13 03:29:38;;;;;;;;;26.00;23.25;;;;;9.52;83.09;101416.78;6278699;22;45315;-89
2022/11/13 03:32:04;;;;;;;;;30.00;25.75;;;;;9.59;83.18;101429.97;6284783;22;45253;-89
2022/11/13 03:34:29;;;;;;;;;34.00;29.25;;;;;9.11;83.17;101347.44;6278782;22;46326;-89
2022/11/13 03:36:55;;;;;;;;;29.50;28.50;;;;;9.93;82.81;101495.03;6275143;22;45315;-89
2022/11/13 03:39:20;;;;;;;;;26.00;25.00;;;;;9.95;82.55;101493.25;6250518;22;45401;-89
2022/11/13 03:41:46;;;;;;;;;28.25;27.75;;;;;9.94;83.22;101478.28;6247953;22;45451;-89
2022/11/13 03:44:11;;;;;;;;;27.25;24.75;;;;;9.09;83.05;101332.47;6250070;22;45975;-89
2022/11/13 03:46:37;;;;;;;;;25.25;23.75;;;;;9.57;82.90;101415.91;6253442;22;45405;-89
2022/11/13 03:49:02;;;;;;;;;23.25;22.50;;;;;9.19;83.18;101339.50;6250287;22;45282;-89
2022/11/13 03:51:27;;;;;;;;;29.25;22.75;;;;;9.09;82.91;101345.66;6276905;22;45372;-88
2022/11/13 03:53:53;;;;;;;;;27.75;22.50;;;;;9.87;83.29;101471.25;6251235;22;46250;-89
2022/11/13 03:56:18;;;;;;;;;18.75;18.75;;;;;9.60;83.10;101429.09;6280372;22;45317;-89
2022/11/13 03:58:44;;;;;;;;;22.25;21.25;;;;;8.73;82.51;101277.16;6282345;22;45727;-89
2022/11/13 04:01:09;;;;;;;;;24.25;20.75;;;;;8.28;82.87;101211.28;6285107;22;45354;-89
2022/11/13 04:03:34;;;;;;;;;28.00;25.75;;;;;9.05;83.03;101345.66;6253191;22;47209;-88
2022/11/13 04:06:00;;;;;;;;;28.25;24.25;;;;;8.97;82.99;101318.41;6275916;22;45238;-89
2022/11/13 04:08:25;;;;;;;;;25.75;22.25;;;;;8.52;82.71;101241.19;6277510;22;45899;-88
2022/11/13 04:10:50;;;;;;;;;23.25;21.75;;;;;8.80;82.89;101304.38;6281249;22;45359;-89
2022/11/13 04:13:16;;;;;;;;;23.75;21.50;;;;;9.06;82.74;101336.88;6250595;22;47209;-88
2022/11/13 04:15:41;;;;;;;;;27.25;24.75;;;;;8.95;82.69;101327.22;6277442;22;45347;-88
2022/11/13 04:18:07;;;;;;;;;25.00;22.00;;;;;8.47;82.95;101251.72;6259484;22;45246;-88
2022/11/13 04:20:32;;;;;;;;;19.75;17.50;;;;;8.99;82.90;101321.94;6250282;22;45498;-88
2022/11/13 04:22:57;;;;;;;;;18.25;18.25;;;;;8.66;82.91;101271.00;6276455;22;46078;-89
2022/11/13 04:25:23;;;;;;;;;23.25;18.00;;;;;9.06;82.37;101349.16;6249544;22;45676;-89
2022/11/13 04:27:50;;;;;;;;;24.25;18.75;;;;;9.41;82.86;101408.91;6279889;22;45259;-89
2022/11/13 04:30:16;;;;;;;;;24.50;20.00;;;;;9.20;82.64;101363.22;6256352;22;45355;-88
2022/11/13 04:32:41;;;;;;;;;17.00;15.00;;;;;9.13;82.88;101358.84;6282967;22;45292;-89
2022/11/13 04:35:07;;;;;;;;;19.50;18.25;;;;;9.39;82.67;101397.47;6275158;22;45524;-89
2022/11/13 04:37:33;;;;;;;;;24.75;19.50;;;;;8.86;82.96;101313.16;6279433;22;45298;-88
2022/11/13 04:39:58;;;;;;;;;16.25;16.25;;;;;9.34;82.63;101394.84;6276034;22;45425;-88
2022/11/13 04:45:08;;;;;;;;;23.00;23.00;;;;;9.33;82.63;101390.44;6276209;22;45395;-90
2022/11/13 04:47:33;;;;;;;;;22.25;19.50;;;;;9.30;83.09;101389.59;6276939;22;45427;-90
2022/11/13 04:49:59;;;;;;;;;24.25;21.75;;;;;9.27;82.93;101384.31;6276580;22;45283;-90
2022/11/13 04:52:24;;;;;;;;;24.75;22.00;;;;;9.49;82.99;101415.06;6280472;22;45348;-89
2022/11/13 04:54:49;;;;;;;;;23.50;19.00;;;;;9.03;82.90;101338.63;6256250;22;45163;-89
2022/11/13 04:57:15;;;;;;;;;29.50;25.50;;;;;8.68;82.41;101282.44;6253438;22;45345;-89
2022/11/13 04:59:40;;;;;;;;;26.00;23.75;;;;;8.66;82.85;101291.22;6252430;22;45198;-90
2022/11/13 05:02:06;;;;;;;;;27.00;23.25;;;;;8.01;82.73;101175.31;6256330;22;46957;-88
2022/11/13 05:04:31;;;;;;;;;24.25;23.00;;;;;8.80;82.27;101307.03;6276278;22;45118;-89
2022/11/13 05:06:56;;;;;;;;;25.75;24.75;;;;;8.86;82.73;101336.00;6251131;22;45273;-89
2022/11/13 05:09:22;;;;;;;;;26.75;23.50;;;;;8.44;82.28;101253.47;6281659;22;45171;-89
2022/11/13 05:11:47;;;;;;;;;31.25;24.75;;;;;9.26;82.66;101383.41;6252892;22;48041;-88
2022/11/13 05:14:13;;;;;;;;;29.00;25.00;;;;;9.17;82.53;101378.16;6281252;22;45296;-89
2022/11/13 05:16:39;;;;;;;;;27.00;24.25;;;;;9.42;82.87;101400.13;6247409;22;45299;-89
2022/11/13 05:19:07;;;;;;;;;31.00;27.00;;;;;8.33;82.78;101230.59;6248767;22;45452;-89
2022/11/13 05:21:34;;;;;;;;;32.00;28.75;;;;;8.47;82.57;101242.91;6250892;22;48448;-89
2022/11/13 05:24:00;;;;;;;;;24.25;24.00;;;;;9.05;82.45;101355.34;6249872;22;45303;-89
2022/11/13 05:26:25;;;;;;;;;28.00;26.25;;;;;7.93;81.92;101154.25;6277389;22;45356;-88
2022/11/13 05:28:51;;;;;;;;;31.00;26.25;;;;;8.35;82.41;101247.28;6280304;22;45365;-89
2022/11/13 05:31:17;;;;;;;;;28.50;24.50;;;;;9.47;82.94;101424.72;6281784;22;46057;-90
2022/11/13 05:33:43;;;;;;;;;26.50;24.75;;;;;8.76;82.26;101319.34;6247653;22;45285;-90
2022/11/13 05:36:11;;;;;;;;;12.25;8.75;;;;;8.76;82.32;101306.16;6276055;22;45246;-90
2022/11/13 05:38:38;;;;;;;;;24.25;21.25;;;;;9.44;82.43;101419.44;6273808;22;45600;-89
2022/11/13 05:41:05;;;;;;;;;25.75;24.00;;;;;9.42;82.53;101432.66;6273990;22;48052;-89
2022/11/13 05:43:31;;;;;;;;;26.75;25.00;;;;;8.59;82.86;101294.75;6250193;22;45643;-89
2022/11/13 05:46:08;;;;;;;;;26.50;26.50;;;;;9.02;82.76;101366.78;6252541;22;45255;-89
2022/11/13 05:48:34;;;;;;;;;25.75;24.00;;;;;9.27;82.60;101414.22;6280762;22;45190;-90
2022/11/13 05:51:05;;;;;;;;;25.25;22.75;;;;;9.11;82.57;101375.53;6279992;22;45919;-89
2022/11/13 05:53:34;;;;;;;;;25.50;21.75;;;;;9.30;82.70;101419.47;6253657;22;45190;-89
2022/11/13 05:56:02;;;;;;;;;25.25;23.00;;;;;8.67;82.58;101314.94;6276625;22;45428;-89
2022/11/13 05:58:28;;;;;;;;;22.00;22.00;;;;;9.25;82.66;101408.06;6248185;22;45461;-89
2022/11/13 06:01:08;;;;;;;;;23.00;19.75;;;;;8.22;82.58;101221.81;6251458;22;47104;-89
2022/11/13 06:03:34;;;;;;;;;20.00;18.25;;;;;9.20;82.87;101388.72;6276289;22;45258;-89
2022/11/13 06:05:59;;;;;;;;;24.50;19.50;;;;;8.31;82.39;101244.66;6273495;22;45512;-89
2022/11/13 06:08:25;;;;;;;;;20.75;19.50;;;;;8.46;82.41;101268.41;6248620;22;45159;-89
2022/11/13 06:10:51;;;;;;;;;28.00;24.50;;;;;8.83;82.17;101330.75;6276521;22;45359;-89
2022/11/13 06:13:16;;;;;;;;;24.00;22.25;;;;;7.99;82.56;101179.69;6279213;22;45467;-89
2022/11/13 06:15:42;;;;;;;;;21.25;20.00;;;;;8.82;82.29;101332.50;6277542;22;45137;-89
2022/11/13 06:18:07;;;;;;;;;26.25;22.50;;;;;8.36;82.21;101254.28;6256408;22;45349;-90
2022/11/13 06:20:35;;;;;;;;;25.50;24.00;;;;;8.35;82.45;101249.94;6281471;22;45850;-89
2022/11/13 06:23:00;;;;;;;;;22.25;21.25;;;;;8.27;82.06;101233.22;6248402;22;45235;-90
2022/11/13 06:25:26;;;;;;;;;23.75;19.75;;;;;8.23;82.17;101226.22;6274010;22;45302;-90
2022/11/13 06:27:52;;;;;;;;;19.00;13.75;;;;;8.37;82.74;101257.81;6250823;22;45420;-89
2022/11/13 06:30:17;;;;;;;;;23.50;22.50;;;;;8.68;82.24;101306.16;6252645;22;47642;-90
2022/11/13 06:32:43;;;;;;;;;24.50;21.00;;;;;9.00;82.57;101370.28;6279087;22;45432;-87
2022/11/13 06:35:08;;;;;;;;;21.75;21.75;;;;;7.94;82.15;101178.81;6280746;22;45150;-89
2022/11/13 06:37:34;;;;;;;;;26.25;22.75;;;;;8.34;82.78;101242.03;6258238;22;45172;-88
2022/11/13 06:39:59;;;;;;;;;16.00;15.00;;;;;7.98;82.55;101197.22;6281228;22;45424;-89
2022/11/13 06:42:25;;;;;;;;;20.50;19.75;;;;;7.75;82.67;101162.13;6282037;22;45301;-90
2022/11/13 06:44:50;;;;;;;;;21.00;19.00;;;;;8.26;82.82;101249.03;6283856;22;45314;-90
2022/11/13 06:47:16;;;;;;;;;20.75;16.50;;;;;8.93;82.44;101364.13;6252022;22;45455;-90
2022/11/13 06:49:41;;;;;;;;;24.50;19.50;;;;;7.22;82.20;101072.63;6281352;22;46112;-88
2022/11/13 06:52:07;;;;;;;;;18.50;17.25;;;;;8.91;83.24;101365.00;6254969;22;45667;-88
2022/11/13 06:54:32;;;;;;;;;21.75;19.00;;;;;8.84;82.70;101353.59;6275960;22;45358;-88
2022/11/13 06:56:57;;;;;;;;;16.50;15.00;;;;;8.45;82.46;101286.84;6251505;22;45329;-89
2022/11/13 06:59:23;;;;;;;;;22.75;21.25;;;;;8.86;82.84;101367.66;6283617;22;46082;-89
2022/11/13 07:01:50;;;;;;;;;17.50;14.50;;;;;8.82;82.83;101350.06;6251759;22;45369;-89
2022/11/13 07:04:15;;;;;;;;;20.75;18.00;;;;;7.83;82.56;101192.88;6275830;22;45377;-88
2022/11/13 07:06:40;;;;;;;;;20.75;18.00;;;;;7.65;82.77;101167.41;6251229;22;45412;-88
2022/11/13 07:09:06;;;;;;;;;21.75;18.00;;;;;7.25;82.59;101091.03;6279556;22;45111;-88
2022/11/13 07:11:31;;;;;;;;;22.25;19.50;;;;;7.26;82.69;101095.44;6284967;22;45194;-93
2022/11/13 07:14:12;;;;;;;;;20.00;18.75;;;;;6.61;82.57;100993.66;6258320;22;44588;-95
2022/11/13 07:16:41;;;;;;;;;22.00;20.75;;;;;7.95;82.29;101210.41;6255312;22;45269;-94
2022/11/13 07:19:07;;;;;;;;;20.00;19.50;;;;;8.01;82.27;101223.56;6286093;22;45635;-90
2022/11/13 07:21:33;;;;;;;;;24.50;21.75;;;;;8.37;82.46;101294.72;6254421;22;45285;-90
2022/11/13 07:23:58;;;;;;;;;20.00;17.25;;;;;8.75;82.37;101356.25;6284491;22;45256;-89
2022/11/13 07:26:24;;;;;;;;;21.25;16.75;;;;;7.05;82.72;101076.97;6256852;22;45148;-90
2022/11/13 07:28:49;;;;;;;;;24.00;17.75;;;;;7.43;82.77;101136.66;6262054;22;48152;-91
2022/11/13 07:31:16;;;;;;;;;18.50;16.25;;;;;8.33;82.66;101287.69;6266632;22;45219;-89
2022/11/13 07:33:42;;;;;;;;;15.25;15.25;;;;;8.35;82.81;101306.97;6286646;22;45309;-91
2022/11/13 07:36:08;;;;;;;;;17.75;15.75;;;;;8.50;82.49;101320.22;6251641;22;45469;-88
2022/11/13 07:38:34;;;;;;;;;19.00;15.50;;;;;8.66;82.58;101347.44;6278432;22;47541;-89
2022/11/13 07:41:00;;;;;;;;;20.75;18.50;;;;;8.77;82.24;101359.75;6280576;22;45397;-87
2022/11/13 07:43:26;;;;;;;;;18.25;15.00;;;;;8.74;82.37;101341.28;6283422;22;45297;-90
2022/11/13 07:45:53;;;;;;;;;18.00;14.25;;;;;7.51;81.83;101134.91;6264655;22;44940;-89
2022/11/13 07:48:20;;;;;;;;;16.25;16.25;;;;;7.90;82.19;101183.19;6285750;22;46999;-89
2022/11/13 07:50:46;;;;;;;;;15.75;13.25;;;;;8.67;82.09;101272.78;6251115;22;45704;-88
2022/11/13 07:53:11;;;;;;;;;18.50;15.75;;;;;8.46;81.63;101220.09;6252350;22;45332;-89
2022/11/13 07:55:37;;;;;;;;;15.00;15.00;;;;;8.60;81.16;101186.69;6278553;22;45569;-90
2022/11/13 07:58:03;;;;;;;;;17.50;17.50;;;;;9.27;81.12;101281.44;6284468;22;46904;-90
2022/11/13 08:00:31;;;;;;;;;17.00;15.25;;;;;9.40;81.03;101281.38;6280531;22;45402;-91
2022/11/13 08:02:57;;;;;;;;;15.00;15.00;;;;;9.96;80.88;101347.13;6251784;22;45342;-88
2022/11/13 08:05:22;;;;;;;;;17.75;15.50;;;;;9.59;81.02;101228.50;6279709;22;45245;-89
2022/11/13 08:07:50;;;;;;;;;19.00;16.25;;;;;10.23;80.68;101273.88;6278634;22;45470;-91
2022/11/13 08:10:16;;;;;;;;;19.25;16.00;;;;;10.54;80.10;101276.31;6276097;22;45274;-91
2022/11/13 08:12:42;;;;;;;;;19.00;17.00;;;;;10.61;79.39;101233.06;6248822;22;45412;-91
2022/11/13 08:15:55;;;;;;;;;21.75;19.00;;;;;11.55;79.12;101328.16;6294811;22;44642;-93
2022/11/13 08:18:30;;;;;;;;;18.00;14.50;;;;;10.09;78.31;101004.56;6301819;22;44993;-92
2022/11/13 08:21:00;;;;;;;;;18.25;14.50;;;;;12.31;78.59;101336.88;6247744;22;45310;-90
2022/11/13 08:23:26;;;;;;;;;20.25;17.50;;;;;11.67;78.26;101175.31;6252359;22;45360;-92
2022/11/13 08:25:51;;;;;;;;;18.75;16.00;;;;;11.86;78.53;101182.09;6255792;22;45131;-90
2022/11/13 08:28:18;;;;;;;;;22.75;19.75;;;;;11.33;77.89;101048.78;6258538;22;47124;-94
2022/11/13 08:30:43;;;;;;;;;19.75;19.75;;;;;12.33;77.62;101215.78;6253261;22;45179;-93
2022/11/13 08:33:12;;;;;;;;;21.00;18.75;;;;;11.37;77.42;101050.47;6254138;22;45250;-92
2022/11/13 08:35:38;;;;;;;;;25.00;23.75;;;;;13.02;77.82;101319.81;6228020;22;45298;-89
2022/11/13 08:38:05;;;;;;;;;21.50;18.00;;;;;12.30;77.91;101189.34;6247659;22;47367;-91
2022/11/13 08:40:31;;;;;;;;;21.50;21.00;;;;;11.97;77.14;101125.44;6250697;22;45219;-91
2022/11/13 08:43:03;;;;;;;;;20.25;19.75;;;;;12.86;76.39;101282.94;6250244;22;45209;-91
2022/11/13 08:45:29;;;;;;;;;23.75;22.75;;;;;12.84;76.84;101274.13;6224614;22;45349;-91
2022/11/13 08:48:02;;;;;;;;;17.50;17.50;;;;;12.36;76.97;101182.19;6253615;22;46231;-91
2022/11/13 08:50:29;;;;;;;;;17.00;16.00;;;;;12.77;76.56;101222.09;6250731;22;45418;-89
2022/11/13 08:52:59;;;;;;;;;19.00;15.75;;;;;13.39;76.28;101293.47;6247193;22;45408;-91
2022/11/13 08:55:25;;;;;;;;;21.25;20.75;;;;;12.72;75.67;101157.63;6271482;22;45308;-93
2022/11/13 08:57:51;;;;;;;;;18.50;16.50;;;;;13.82;75.35;101297.84;6251880;22;47257;-91
2022/11/13 09:00:16;;;;;;;;;24.00;22.00;;;;;13.57;74.51;101204.53;6259447;22;45422;-91
2022/11/13 09:02:43;;;;;;;;;25.00;23.50;;;;;13.67;73.93;101179.53;6261578;22;44725;-91
2022/11/13 09:05:08;;;;;;;;;22.25;20.50;;;;;14.48;73.48;101275.94;6261741;22;44859;-91
2022/11/13 09:07:34;;;;;;;;;23.00;20.75;;;;;13.96;73.43;101180.59;6260771;22;47004;-92
2022/11/13 09:10:00;;;;;;;;;20.25;19.00;;;;;13.46;73.66;101055.22;6252432;22;45434;-91
2022/11/13 09:12:26;;;;;;;;;24.25;23.25;;;;;14.04;73.53;101148.53;6250460;22;45383;-90
2022/11/13 09:14:53;;;;;;;;;17.75;17.75;;;;;14.27;73.38;101161.25;6249276;22;45261;-91
2022/11/13 09:17:18;;;;;;;;;18.75;17.50;;;;;14.99;73.63;101272.88;6248344;22;47268;-91
2022/11/13 09:19:43;;;;;;;;;23.75;21.00;;;;;14.71;73.50;101220.41;6248616;22;45099;-90
2022/11/13 09:22:10;;;;;;;;;26.75;23.25;;;;;14.57;73.78;101177.28;6247910;22;45203;-91
2022/11/13 09:24:35;;;;;;;;;19.00;18.75;;;;;14.56;73.63;101172.88;6252512;22;45459;-90
2022/11/13 09:27:01;;;;;;;;;26.25;22.00;;;;;14.07;73.92;101089.97;6253080;22;45223;-91
2022/11/13 09:29:27;;;;;;;;;18.75;17.25;;;;;14.60;73.81;101179.84;6271166;22;45447;-91
2022/11/13 09:31:55;;;;;;;;;19.50;16.75;;;;;15.13;74.18;101279.59;6247634;22;45281;-90
2022/11/13 09:34:21;;;;;;;;;20.50;18.75;;;;;14.87;74.15;101217.31;6274614;22;45483;-90
2022/11/13 09:36:47;;;;;;;;;22.50;18.75;;;;;14.60;74.06;101145.28;6251438;22;45518;-90
2022/11/13 09:39:12;;;;;;;;;20.25;19.00;;;;;15.09;73.67;101213.13;6249727;22;45161;-90
2022/11/13 09:42:10;;;;;;;;;24.50;21.25;;;;;15.31;73.66;101231.13;6247693;22;45261;-90
2022/11/13 09:45:01;;;;;;;;;23.75;23.00;;;;;15.16;73.22;101171.22;6271297;22;45442;-90
2022/11/13 09:47:32;;;;;;;;;25.25;24.00;;;;;16.01;72.56;101245.91;6244208;22;48020;-91
2022/11/13 09:50:05;;;;;;;;;21.75;18.50;;;;;15.76;71.70;101153.38;6246484;22;45317;-93
2022/11/13 09:52:41;;;;;;;;;26.00;21.50;;;;;15.95;71.57;101131.47;6245258;22;45134;-91
2022/11/13 09:55:19;;;;;;;;;24.75;20.00;;;;;15.92;71.60;101051.63;6253082;22;45475;-90
2022/11/13 09:58:15;;;;;;;;;21.25;20.00;;;;;16.45;71.44;101098.66;6254381;22;45460;-93
2022/11/13 10:00:40;;;;;;;;;21.75;19.75;;;;;17.26;71.09;101228.25;6220162;22;45448;-91
2022/11/13 10:03:25;;;;;;;;;24.00;23.00;;;;;17.50;70.57;101237.16;6219050;22;45309;-90
2022/11/13 10:06:05;;;;;;;;;24.50;22.00;;;;;17.57;70.58;101238.66;6228835;22;44824;-90
2022/11/13 10:08:39;;;;;;;;;20.75;20.25;;;;;17.15;71.26;101169.91;6207263;22;46704;-90
2022/11/13 10:11:11;;;;;;;;;23.50;18.25;;;;;16.68;70.84;101090.66;6194727;22;45336;-92
2022/11/13 10:14:13;;;;;;;;;19.75;19.00;;;;;16.68;71.61;101084.44;6200881;22;45456;-90
2022/11/13 10:17:00;;;;;;;;;22.00;20.50;;;;;17.33;71.50;101175.50;6193108;22;45380;-93
2022/11/13 10:19:42;;;;;;;;;18.25;18.25;;;;;17.13;71.08;101110.34;6190132;22;46696;-91
2022/11/13 10:22:23;;;;;;;;;21.50;21.50;;;;;17.98;70.69;101221.09;6197279;22;45338;-92
2022/11/13 10:24:51;;;;;;;;;19.25;19.25;;;;;17.27;70.47;101088.44;6203053;22;45180;-91
2022/11/13 10:27:17;;;;;;;;;18.00;16.75;;;;;17.69;70.44;101132.22;6199422;22;45346;-90
2022/11/13 10:29:44;;;;;;;;;17.75;15.75;;;;;17.02;70.65;100984.38;6221443;22;45423;-92
2022/11/13 10:32:29;;;;;;;;;19.00;19.00;;;;;17.77;70.74;101071.28;6195734;22;45356;-91
2022/11/13 10:35:04;;;;;;;;;15.00;14.75;;;;;18.56;70.33;101199.88;6231426;22;45425;-92
2022/11/13 10:38:00;;;;;;;;;20.50;20.25;;;;;18.22;70.27;101147.84;6219195;22;44950;-92
2022/11/13 10:40:31;;;;;;;;;21.25;20.00;;;;;18.14;70.52;101146.41;6252837;22;45496;-90
2022/11/13 10:43:13;;;;;;;;;19.50;18.50;;;;;18.34;70.53;101191.94;6225578;22;45417;-92
2022/11/13 10:45:39;;;;;;;;;29.00;22.75;;;;;17.86;70.57;101127.03;6251056;22;45289;-92
2022/11/13 10:48:05;;;;;;;;;21.00;19.75;;;;;17.92;70.46;101118.78;6262265;22;45164;-91
2022/11/13 10:50:32;;;;;;;;;19.25;18.75;;;;;18.32;69.99;101155.47;6259138;22;46924;-91
2022/11/13 10:52:58;;;;;;;;;23.00;23.00;;;;;18.59;69.84;101188.19;6230227;22;45371;-90
2022/11/13 10:55:40;;;;;;;;;22.00;18.50;;;;;17.89;70.09;101057.41;6223153;22;45441;-92
2022/11/13 10:58:15;;;;;;;;;22.75;20.50;;;;;18.63;70.25;101179.09;6251000;22;45193;-91
2022/11/13 11:00:43;;;;;;;;;16.75;16.75;;;;;17.47;69.70;100977.22;6226659;22;45249;-92
2022/11/13 11:03:28;;;;;;;;;22.00;19.00;;;;;17.83;70.25;101036.25;6225163;22;45257;-92
2022/11/13 11:06:00;;;;;;;;;17.50;17.50;;;;;18.53;70.14;101156.34;6256465;22;45385;-91
2022/11/13 11:08:36;;;;;;;;;24.75;20.75;;;;;18.27;70.43;101108.38;6227197;22;45424;-92
2022/11/13 11:14:11;;;;;;;;;24.00;22.75;;;;;18.74;69.73;101149.16;6253318;22;45207;-92
2022/11/13 11:16:37;;;;;;;;;22.25;21.25;;;;;18.78;68.76;101110.56;6252454;22;45187;-92
2022/11/13 11:19:10;;;;;;;;;20.00;18.00;;;;;19.51;67.95;101137.53;6199893;22;44865;-92
2022/11/13 11:21:44;;;;;;;;;19.00;18.25;;;;;20.06;66.64;101137.50;6233485;22;47469;-85
2022/11/13 11:24:22;;;;;;;;;18.75;17.75;;;;;20.54;66.18;101152.97;6280140;22;45341;-90
2022/11/13 11:26:50;;;;;;;;;23.00;21.25;;;;;20.77;65.46;101125.78;6284622;22;45337;-90
2022/11/13 11:29:25;;;;;;;;;17.75;17.00;;;;;20.03;65.29;100990.13;6283031;22;45542;-92